Time;durP1;ratioP1;P1;durP2;ratioP2;P2;SDS_P1;SDS_P2;PMS_P1;PMS_P2;Temp;Humidity;BMP_temperature;BMP_pressure;BME280_temperature;BME280_humidity;BME280_pressure;Samples;Min_cycle;Max_cycle;Signal;HPM_P1;HPM_P2
2022/05/30 00:01:46;;;;;;;1.20;1.10;;;;;;;10.28;62.38;98087.03;4154268;28;20236;-59
2022/05/30 00:03:48;;;;;;;0.82;0.82;;;;;;;10.26;62.56;98088.34;4153912;28;20232;-58
2022/05/30 00:05:50;;;;;;;1.10;1.00;;;;;;;10.21;62.82;98091.06;4152631;28;20300;-59
2022/05/30 00:07:52;;;;;;;0.85;0.85;;;;;;;10.13;63.17;98084.13;4153439;28;20291;-58
2022/05/30 00:09:54;;;;;;;1.00;1.00;;;;;;;10.04;63.19;98085.69;4155553;28;20777;-58
2022/05/30 00:11:55;;;;;;;1.30;1.30;;;;;;;9.98;63.32;98083.94;4152390;28;20308;-58
2022/05/30 00:13:57;;;;;;;1.50;1.40;;;;;;;9.93;63.22;98080.31;4156179;28;20288;-59
2022/05/30 00:16:13;;;;;;;0.70;0.70;;;;;;;9.88;64.03;98083.00;4154753;28;20388;-59
2022/05/30 00:18:16;;;;;;;0.63;0.63;;;;;;;9.85;64.24;98086.25;4153463;28;20296;-59
2022/05/30 00:20:17;;;;;;;0.82;0.82;;;;;;;9.81;64.27;98080.47;4153085;28;20207;-59
2022/05/30 00:22:19;;;;;;;1.00;1.00;;;;;;;9.76;64.47;98077.66;4152790;28;20213;-59
2022/05/30 00:24:20;;;;;;;0.70;0.70;;;;;;;9.70;64.57;98092.38;4153594;28;20714;-58
2022/05/30 00:26:23;;;;;;;1.00;0.90;;;;;;;9.67;64.43;98090.13;4154237;28;20240;-59
2022/05/30 00:28:24;;;;;;;1.23;1.23;;;;;;;9.65;64.55;98091.47;4169229;28;20204;-58
2022/05/30 00:30:26;;;;;;;3.92;0.82;;;;;;;9.61;64.36;98090.34;4150696;28;20667;-58
2022/05/30 00:32:27;;;;;;;0.98;0.98;;;;;;;9.59;63.82;98082.41;4151728;28;20201;-58
2022/05/30 00:34:29;;;;;;;0.70;0.70;;;;;;;9.58;63.74;98082.63;4168312;28;21160;-58
2022/05/30 00:36:30;;;;;;;0.80;0.80;;;;;;;9.56;64.33;98077.44;4154372;28;20296;-58
2022/05/30 00:38:32;;;;;;;0.85;0.85;;;;;;;9.58;64.34;98080.75;4154912;28;20204;-58
2022/05/30 00:40:35;;;;;;;0.95;0.95;;;;;;;9.59;64.10;98076.94;4151252;28;20332;-58
2022/05/30 00:42:37;;;;;;;0.88;0.80;;;;;;;9.60;63.86;98075.00;4170442;28;20243;-58
2022/05/30 00:44:45;;;;;;;0.88;0.88;;;;;;;9.59;63.68;98081.56;4152263;28;20313;-58
2022/05/30 00:46:47;;;;;;;0.75;0.75;;;;;;;9.56;63.97;98071.97;4156172;28;20205;-58
2022/05/30 00:49:08;;;;;;;1.20;1.20;;;;;;;9.57;63.79;98070.06;4152340;28;20272;-58
2022/05/30 00:51:16;;;;;;;0.90;0.90;;;;;;;9.52;63.91;98072.72;4152004;28;20605;-58
2022/05/30 00:53:18;;;;;;;1.23;1.23;;;;;;;9.49;63.78;98073.25;4153188;28;20197;-58
2022/05/30 00:55:21;;;;;;;1.10;1.10;;;;;;;9.48;64.00;98066.16;4151309;28;20212;-58
2022/05/30 00:57:25;;;;;;;1.35;1.25;;;;;;;9.47;63.94;98067.19;4153810;28;20228;-58
2022/05/30 00:59:27;;;;;;;0.98;0.98;;;;;;;9.44;63.97;98065.81;4147457;28;20225;-58
2022/05/30 01:01:30;;;;;;;0.90;0.90;;;;;;;9.40;63.97;98063.84;4147460;28;20639;-58
2022/05/30 01:08:12;;;;;;;0.90;0.90;;;;;;;9.19;64.05;98051.84;4162313;28;20207;-58
2022/05/30 01:10:18;;;;;;;1.05;1.05;;;;;;;9.23;64.01;98049.44;4151899;28;20232;-58
2022/05/30 01:12:40;;;;;;;1.00;1.00;;;;;;;9.19;63.67;98049.09;4153437;28;20632;-59
2022/05/30 01:14:43;;;;;;;1.10;1.10;;;;;;;9.18;64.45;98052.91;4154532;28;20301;-58
2022/05/30 01:16:44;;;;;;;1.15;1.05;;;;;;;9.15;64.22;98052.59;4152372;28;20324;-58
2022/05/30 01:18:50;;;;;;;1.40;1.30;;;;;;;9.12;64.57;98048.47;4150762;28;20256;-61
2022/05/30 01:21:16;;;;;;;0.80;0.80;;;;;;;9.06;65.06;98046.75;4154356;28;20592;-59
2022/05/30 01:23:43;;;;;;;0.95;0.95;;;;;;;9.04;64.68;98045.34;4153962;28;20213;-59
2022/05/30 01:26:21;;;;;;;1.00;1.00;;;;;;;8.99;64.89;98042.53;4151277;28;20288;-59
2022/05/30 01:28:38;;;;;;;1.75;1.20;;;;;;;8.94;65.23;98042.47;4150656;28;20220;-59
2022/05/30 01:30:40;;;;;;;1.00;0.98;;;;;;;8.90;64.96;98044.84;4152923;28;20318;-59
2022/05/30 01:32:42;;;;;;;1.05;1.05;;;;;;;8.88;65.29;98040.75;4151488;28;20288;-59
2022/05/30 01:34:44;;;;;;;1.33;1.15;;;;;;;8.86;64.95;98037.44;4152075;28;20205;-58
2022/05/30 01:36:45;;;;;;;3.60;0.85;;;;;;;8.81;65.37;98029.19;4152483;28;20309;-59
2022/05/30 01:38:47;;;;;;;0.90;0.90;;;;;;;8.77;65.84;98034.31;4151768;28;20207;-59
2022/05/30 01:40:48;;;;;;;1.02;1.02;;;;;;;8.74;65.49;98028.53;4151431;28;20722;-59
2022/05/30 01:42:50;;;;;;;1.60;1.50;;;;;;;8.68;66.14;98029.53;4151282;28;20201;-59
2022/05/30 01:44:52;;;;;;;1.30;1.20;;;;;;;8.55;65.89;98024.44;4153212;28;20228;-58
2022/05/30 01:46:53;;;;;;;0.90;0.90;;;;;;;8.52;66.76;98023.03;4152934;28;20209;-56
2022/05/30 01:48:55;;;;;;;1.20;1.20;;;;;;;8.51;66.55;98024.09;4153110;28;20201;-57
2022/05/30 01:50:57;;;;;;;1.42;1.33;;;;;;;8.54;66.30;98028.25;4152261;28;20583;-58
2022/05/30 01:52:58;;;;;;;0.88;0.88;;;;;;;8.53;65.80;98015.66;4150484;28;20573;-58
2022/05/30 01:55:00;;;;;;;5.28;1.02;;;;;;;8.52;66.08;98025.75;4151406;28;20219;-59
2022/05/30 01:57:02;;;;;;;0.85;0.85;;;;;;;8.53;66.13;98018.38;4152142;28;20211;-58
2022/05/30 02:02:25;;;;;;;1.10;1.10;;;;;;;8.48;66.18;98021.06;4147443;28;20224;-58
2022/05/30 02:04:27;;;;;;;1.13;1.02;;;;;;;8.45;66.33;98018.81;4150941;28;20233;-57
2022/05/30 02:06:31;;;;;;;1.20;1.20;;;;;;;8.40;66.44;98022.28;4152830;28;20215;-58
2022/05/30 02:08:33;;;;;;;0.90;0.90;;;;;;;8.36;66.14;98017.56;4150084;28;20563;-58
2022/05/30 02:10:35;;;;;;;1.20;1.20;;;;;;;8.36;66.15;98003.94;4151203;28;20225;-57
2022/05/30 02:12:36;;;;;;;1.25;1.25;;;;;;;8.38;65.92;98018.16;4154192;28;20205;-58
2022/05/30 02:14:38;;;;;;;1.30;1.20;;;;;;;8.28;66.75;98013.34;4151282;28;20227;-59
2022/05/30 02:19:00;;;;;;;0.90;0.90;;;;;;;8.37;66.64;98011.06;4151883;28;20757;-59
2022/05/30 02:21:02;;;;;;;1.10;1.10;;;;;;;8.37;66.66;98013.78;4152574;28;20225;-59
2022/05/30 02:23:04;;;;;;;1.33;1.05;;;;;;;8.32;65.98;98013.69;4151222;28;20209;-59
2022/05/30 02:25:06;;;;;;;1.08;1.08;;;;;;;8.20;66.51;98021.09;4151531;28;20280;-59
2022/05/30 02:27:11;;;;;;;0.95;0.95;;;;;;;8.14;66.54;98005.72;4152959;28;20213;-59
2022/05/30 02:29:12;;;;;;;1.08;1.08;;;;;;;8.11;66.17;98017.13;4152978;28;20589;-59
2022/05/30 02:31:14;;;;;;;1.60;1.45;;;;;;;8.08;65.95;98007.53;4153483;28;20228;-59
2022/05/30 02:37:56;;;;;;;0.90;0.90;;;;;;;8.02;66.27;98007.72;4157406;28;20208;-59
2022/05/30 02:39:58;;;;;;;1.30;1.20;;;;;;;8.01;66.67;98011.50;4155187;28;20201;-59
2022/05/30 02:41:59;;;;;;;1.02;1.02;;;;;;;8.00;66.85;98005.22;4155315;28;20244;-58
2022/05/30 02:44:01;;;;;;;1.08;1.08;;;;;;;8.00;66.58;98004.38;4157838;28;20308;-59
2022/05/30 02:46:02;;;;;;;1.00;1.00;;;;;;;8.01;66.80;98006.06;4154210;28;20197;-60
2022/05/30 02:48:04;;;;;;;1.23;1.20;;;;;;;8.03;66.04;97993.00;4155079;28;20205;-58
2022/05/30 02:50:06;;;;;;;1.27;1.27;;;;;;;8.06;65.86;97995.22;4153271;28;20684;-59
2022/05/30 02:52:08;;;;;;;1.00;1.00;;;;;;;8.05;66.17;98001.75;4153148;28;20205;-61
2022/05/30 02:54:11;;;;;;;0.95;0.95;;;;;;;8.03;65.91;98001.19;4154780;28;20225;-59
2022/05/30 02:56:13;;;;;;;0.70;0.70;;;;;;;8.00;65.95;97998.94;4154734;28;20671;-59
2022/05/30 02:58:15;;;;;;;1.05;1.05;;;;;;;8.02;66.49;98002.25;4154800;28;20260;-60
2022/05/30 03:00:17;;;;;;;2.15;1.10;;;;;;;8.02;65.98;98003.06;4153253;28;20213;-59
2022/05/30 03:02:18;;;;;;;1.35;1.33;;;;;;;7.99;65.75;98013.63;4152505;28;20213;-58
2022/05/30 03:04:20;;;;;;;1.10;1.10;;;;;;;7.92;66.21;98008.34;4154457;28;20215;-59
2022/05/30 03:06:22;;;;;;;0.98;0.98;;;;;;;7.89;65.50;98013.47;4155179;28;20216;-59
2022/05/30 03:08:23;;;;;;;1.08;1.08;;;;;;;7.85;65.81;98012.28;4153970;28;20688;-59
2022/05/30 03:10:25;;;;;;;1.02;1.02;;;;;;;7.84;66.40;98013.38;4154226;28;20719;-59
2022/05/30 03:12:26;;;;;;;1.30;1.20;;;;;;;7.80;65.77;98014.91;4153910;28;20201;-59
2022/05/30 03:14:28;;;;;;;1.00;1.00;;;;;;;7.78;66.33;98022.50;4155493;28;20205;-59
2022/05/30 03:16:29;;;;;;;0.98;0.98;;;;;;;7.77;66.24;98015.41;4155942;28;20209;-59
2022/05/30 03:18:31;;;;;;;2.15;1.95;;;;;;;7.75;66.93;98020.28;4154477;28;20251;-59
2022/05/30 03:20:33;;;;;;;1.10;1.02;;;;;;;7.71;67.00;98030.00;4154010;28;20232;-59
2022/05/30 03:22:34;;;;;;;1.00;1.00;;;;;;;7.62;67.47;98029.56;4153986;28;20208;-59
2022/05/30 03:24:36;;;;;;;1.00;1.00;;;;;;;7.61;66.95;98033.38;4155617;28;20692;-59
2022/05/30 03:26:37;;;;;;;1.02;1.02;;;;;;;7.62;67.33;98040.47;4152572;28;20665;-59
2022/05/30 03:28:39;;;;;;;1.30;1.30;;;;;;;7.57;67.19;98031.38;4153953;28;20215;-59
2022/05/30 03:30:40;;;;;;;1.20;1.10;;;;;;;7.58;67.04;98033.03;4153237;28;20228;-59
2022/05/30 03:32:43;;;;;;;1.08;1.08;;;;;;;7.58;66.62;98038.47;4153482;28;20220;-59
2022/05/30 03:34:45;;;;;;;1.00;1.00;;;;;;;7.57;66.75;98036.81;4153729;28;20197;-59
2022/05/30 03:36:46;;;;;;;1.27;1.20;;;;;;;7.57;66.32;98043.06;4157344;28;20280;-59
2022/05/30 03:38:48;;;;;;;1.40;1.30;;;;;;;7.57;66.10;98045.00;4156450;28;20205;-59
2022/05/30 03:40:49;;;;;;;1.40;1.30;;;;;;;7.53;66.19;98046.53;4155774;28;20679;-58
2022/05/30 03:42:51;;;;;;;1.08;1.08;;;;;;;7.49;66.45;98051.63;4151963;28;20288;-58
2022/05/30 03:44:53;;;;;;;1.17;1.08;;;;;;;7.50;66.57;98053.28;4156595;28;20256;-58
2022/05/30 03:46:54;;;;;;;0.90;0.90;;;;;;;7.55;66.52;98049.84;4155885;28;20664;-60
2022/05/30 03:48:56;;;;;;;1.00;1.00;;;;;;;7.58;66.52;98049.34;4153423;28;20205;-59
2022/05/30 03:50:58;;;;;;;1.45;1.38;;;;;;;7.58;66.88;98054.81;4154447;28;20661;-60
2022/05/30 03:53:08;;;;;;;1.30;1.30;;;;;;;7.54;66.69;98056.34;4153659;28;20288;-60
2022/05/30 03:55:13;;;;;;;1.10;1.10;;;;;;;7.49;66.76;98062.53;4153168;28;20215;-60
2022/05/30 03:57:15;;;;;;;1.17;1.17;;;;;;;7.21;67.87;98064.41;4153899;28;20695;-60
2022/05/30 03:59:16;;;;;;;1.20;1.20;;;;;;;6.97;69.36;98068.22;4152961;28;20208;-60
2022/05/30 04:01:18;;;;;;;1.15;1.15;;;;;;;7.03;68.27;98062.63;4154215;28;20220;-59
2022/05/30 04:03:19;;;;;;;1.10;1.10;;;;;;;7.09;68.11;98066.31;4153866;28;20627;-59
2022/05/30 04:05:21;;;;;;;1.25;1.20;;;;;;;7.18;68.45;98065.69;4152700;28;20232;-59
2022/05/30 04:07:23;;;;;;;0.93;0.93;;;;;;;7.21;68.06;98064.41;4151768;28;20241;-59
2022/05/30 04:09:24;;;;;;;1.27;1.17;;;;;;;7.24;67.80;98063.91;4152731;28;20212;-59
2022/05/30 04:11:26;;;;;;;1.23;1.20;;;;;;;7.31;67.76;98070.88;4153031;28;20319;-59
2022/05/30 04:13:28;;;;;;;1.27;1.20;;;;;;;7.37;67.49;98074.53;4150874;28;20583;-59
2022/05/30 04:15:30;;;;;;;1.13;1.13;;;;;;;7.37;68.15;98069.06;4151611;28;21846;-59
2022/05/30 04:17:33;;;;;;;1.33;1.33;;;;;;;7.39;67.45;98073.22;4153960;28;20204;-59
2022/05/30 04:19:36;;;;;;;0.98;0.98;;;;;;;7.45;67.33;98071.41;4150935;28;20308;-59
2022/05/30 04:21:38;;;;;;;1.13;1.13;;;;;;;7.46;67.34;98082.06;4153198;28;20225;-59
2022/05/30 04:23:42;;;;;;;1.40;1.30;;;;;;;7.54;67.05;98080.84;4154187;28;20200;-59
2022/05/30 04:25:43;;;;;;;1.45;1.30;;;;;;;7.52;67.46;98083.00;4156548;28;20244;-59
2022/05/30 04:27:45;;;;;;;1.30;1.30;;;;;;;7.53;67.48;98073.75;4154321;28;20201;-59
2022/05/30 04:29:48;;;;;;;1.13;1.02;;;;;;;7.54;67.53;98075.41;4154579;28;20210;-59
2022/05/30 04:31:50;;;;;;;1.60;1.50;;;;;;;7.55;67.81;98077.09;4152056;28;20221;-59
2022/05/30 04:33:51;;;;;;;1.33;1.10;;;;;;;7.56;67.87;98074.09;4153295;28;20306;-59
2022/05/30 04:35:53;;;;;;;1.52;1.42;;;;;;;7.59;67.42;98073.63;4149672;28;20203;-59
2022/05/30 04:37:54;;;;;;;1.10;1.10;;;;;;;7.65;67.14;98066.38;4151919;28;20201;-59
2022/05/30 04:39:56;;;;;;;1.27;1.27;;;;;;;7.71;67.54;98070.84;4158304;28;20336;-59
2022/05/30 04:41:57;;;;;;;1.40;1.40;;;;;;;7.74;67.87;98073.06;4153374;28;20312;-59
2022/05/30 04:43:59;;;;;;;1.55;1.45;;;;;;;7.77;67.87;98075.34;4153498;28;20203;-59
2022/05/30 04:46:11;;;;;;;1.63;1.52;;;;;;;7.80;68.11;98080.28;4150599;28;20282;-59
2022/05/30 04:48:14;;;;;;;1.30;1.30;;;;;;;7.82;68.01;98078.16;4152493;28;20679;-59
2022/05/30 04:50:16;;;;;;;1.80;1.30;;;;;;;7.78;69.10;98074.25;4154024;28;20211;-59
2022/05/30 04:52:18;;;;;;;1.70;1.60;;;;;;;7.85;68.52;98088.56;4149641;28;20572;-59
2022/05/30 04:54:20;;;;;;;1.92;1.83;;;;;;;7.66;70.81;98085.19;4152152;28;20304;-60
2022/05/30 04:56:22;;;;;;;2.30;1.90;;;;;;;7.75;69.75;98082.94;4153432;28;20205;-59
2022/05/30 04:58:24;;;;;;;1.65;1.55;;;;;;;7.79;69.48;98084.06;4152916;28;20212;-59
2022/05/30 05:00:25;;;;;;;2.10;2.00;;;;;;;7.86;69.99;98084.75;4152377;28;20231;-59
2022/05/30 05:02:27;;;;;;;1.70;1.60;;;;;;;7.94;69.15;98076.19;4150601;28;20304;-59
2022/05/30 05:04:28;;;;;;;2.40;1.92;;;;;;;7.94;70.09;98087.09;4163763;28;21138;-59
2022/05/30 05:06:30;;;;;;;1.95;1.75;;;;;;;7.98;70.04;98082.81;4151374;28;20225;-62
2022/05/30 05:08:37;;;;;;;2.17;1.98;;;;;;;8.09;69.84;98090.13;4153671;28;20220;-62
2022/05/30 05:10:47;;;;;;;1.83;1.73;;;;;;;8.12;69.70;98085.00;4152312;28;20223;-64
2022/05/30 05:12:49;;;;;;;2.13;1.92;;;;;;;8.19;69.39;98087.56;4150272;28;20712;-63
2022/05/30 05:14:50;;;;;;;1.33;1.30;;;;;;;8.23;69.36;98094.22;4150056;28;20233;-62
2022/05/30 05:16:52;;;;;;;1.60;1.50;;;;;;;8.35;69.61;98089.53;4153141;28;20212;-62
2022/05/30 05:18:54;;;;;;;1.55;1.45;;;;;;;8.39;68.80;98090.66;4150327;28;20260;-62
2022/05/30 05:20:56;;;;;;;1.70;1.60;;;;;;;8.48;68.75;98089.22;4150103;28;20689;-63
2022/05/30 05:22:57;;;;;;;1.60;1.50;;;;;;;8.61;68.44;98088.88;4149752;28;20209;-60
2022/05/30 05:24:59;;;;;;;1.83;1.73;;;;;;;8.72;68.25;98090.69;4153540;28;20205;-61
2022/05/30 05:27:00;;;;;;;2.47;2.28;;;;;;;8.87;68.30;98096.38;4150859;28;20222;-61
2022/05/30 05:29:02;;;;;;;1.73;1.63;;;;;;;9.02;68.63;98096.63;4152762;28;20211;-61
2022/05/30 05:31:06;;;;;;;2.75;2.55;;;;;;;9.21;68.91;98106.19;4152057;28;20224;-64
2022/05/30 05:33:08;;;;;;;2.05;1.95;;;;;;;9.46;69.46;98109.25;4149538;28;20664;-62
2022/05/30 05:35:10;;;;;;;2.28;2.08;;;;;;;9.64;69.25;98111.66;4151867;28;21018;-63
2022/05/30 05:37:12;;;;;;;3.20;3.00;;;;;;;9.75;69.13;98113.47;4148367;28;20225;-62
2022/05/30 05:39:16;;;;;;;1.85;1.75;;;;;;;9.93;68.34;98110.38;4151484;28;20307;-60
2022/05/30 05:41:18;;;;;;;1.90;1.80;;;;;;;10.09;67.99;98107.59;4153233;28;20227;-63
2022/05/30 05:43:19;;;;;;;2.63;2.42;;;;;;;10.19;67.66;98106.88;4147999;28;20210;-61
2022/05/30 05:45:21;;;;;;;1.80;1.70;;;;;;;10.40;67.52;98100.53;4154259;28;21467;-61
2022/05/30 05:47:22;;;;;;;1.90;1.80;;;;;;;10.58;66.25;98113.84;4169407;28;20307;-62
2022/05/30 05:49:31;;;;;;;1.95;1.80;;;;;;;10.64;66.39;98097.22;4151308;28;20212;-60
2022/05/30 05:51:32;;;;;;;1.90;1.80;;;;;;;10.85;65.70;98099.84;4153362;28;20328;-62
2022/05/30 05:53:34;;;;;;;2.50;2.30;;;;;;;10.98;65.92;98104.88;4149436;28;20207;-62
2022/05/30 05:55:37;;;;;;;1.85;1.75;;;;;;;11.07;65.01;98103.31;4152717;28;20668;-63
2022/05/30 05:57:39;;;;;;;2.55;2.35;;;;;;;11.15;64.54;98102.81;4153717;28;20201;-59
2022/05/30 05:59:40;;;;;;;1.92;1.83;;;;;;;11.23;64.57;98107.78;4149347;28;20296;-63
2022/05/30 06:01:42;;;;;;;2.05;1.65;;;;;;;11.31;65.06;98109.22;4151741;28;20221;-61
2022/05/30 06:03:44;;;;;;;1.92;1.83;;;;;;;11.46;64.02;98107.41;4148303;28;20205;-64
2022/05/30 06:05:45;;;;;;;2.05;1.80;;;;;;;11.58;64.31;98116.25;4152031;28;20236;-62
2022/05/30 06:07:47;;;;;;;1.95;1.52;;;;;;;11.67;63.13;98120.16;4150479;28;20296;-62
2022/05/30 06:09:48;;;;;;;1.98;1.80;;;;;;;11.75;63.30;98119.63;4152068;28;20649;-63
2022/05/30 06:11:50;;;;;;;1.83;1.60;;;;;;;11.84;63.94;98117.19;4152029;28;20231;-60
2022/05/30 06:13:51;;;;;;;1.65;1.55;;;;;;;11.87;63.71;98119.41;4157914;28;20201;-63
2022/05/30 06:15:53;;;;;;;2.15;1.95;;;;;;;11.84;64.52;98115.28;4155155;28;20205;-64
2022/05/30 06:17:55;;;;;;;2.42;2.22;;;;;;;12.02;64.07;98117.53;4157490;28;20624;-61
2022/05/30 06:19:57;;;;;;;1.83;1.67;;;;;;;12.19;63.75;98118.16;4154486;28;20201;-62
2022/05/30 06:21:58;;;;;;;2.97;1.80;;;;;;;12.20;63.65;98116.22;4155287;28;20228;-63
2022/05/30 06:24:00;;;;;;;2.25;2.05;;;;;;;12.29;63.29;98126.41;4156681;28;20205;-61
2022/05/30 06:26:06;;;;;;;1.88;1.65;;;;;;;12.51;62.77;98126.19;4156754;28;20224;-62
2022/05/30 06:28:08;;;;;;;2.35;1.60;;;;;;;12.63;63.28;98130.31;4157190;28;20205;-59
2022/05/30 06:30:10;;;;;;;1.95;1.83;;;;;;;12.64;63.30;98131.16;4156501;28;20214;-62
2022/05/30 06:32:12;;;;;;;1.50;1.40;;;;;;;12.74;62.57;98131.13;4154434;28;20205;-60
2022/05/30 06:34:14;;;;;;;2.00;1.85;;;;;;;12.88;61.97;98122.09;4156196;28;20240;-59
2022/05/30 06:36:17;;;;;;;2.03;1.83;;;;;;;12.93;61.55;98118.53;4157513;28;22023;-61
2022/05/30 06:38:20;;;;;;;2.45;2.20;;;;;;;12.66;62.66;98124.28;4158694;28;20236;-60
2022/05/30 06:40:22;;;;;;;1.63;1.52;;;;;;;12.88;62.64;98116.59;4158232;28;20212;-60
2022/05/30 06:42:24;;;;;;;1.95;1.38;;;;;;;12.99;63.03;98111.97;4159811;28;20223;-61
2022/05/30 06:44:26;;;;;;;2.15;1.77;;;;;;;13.09;61.84;98120.22;4157827;28;20225;-63
2022/05/30 06:46:28;;;;;;;2.08;1.90;;;;;;;13.19;61.24;98117.44;4158034;28;20212;-58
2022/05/30 06:48:30;;;;;;;1.48;1.25;;;;;;;12.85;62.01;98117.13;4154810;28;20212;-61
2022/05/30 06:50:31;;;;;;;2.10;1.98;;;;;;;13.20;61.87;98119.94;4154691;28;20274;-58
2022/05/30 06:52:35;;;;;;;1.27;1.20;;;;;;;13.43;61.05;98121.28;4152464;28;20615;-58
2022/05/30 06:54:36;;;;;;;2.05;1.52;;;;;;;13.46;61.14;98123.44;4155838;28;20255;-58
2022/05/30 06:58:12;;;;;;;1.25;1.15;;;;;;;13.41;60.50;98124.28;4158826;28;20676;-58
2022/05/30 06:59:05;;;;;;;1.17;1.08;;;;;;;13.43;60.59;98124.81;4154245;28;20308;-58
2022/05/30 07:01:07;;;;;;;9.40;1.30;;;;;;;13.69;60.39;98129.16;4158302;28;20224;-57
2022/05/30 07:03:08;;;;;;;1.40;1.30;;;;;;;13.62;59.82;98123.13;4158649;28;20248;-57
2022/05/30 07:05:10;;;;;;;1.55;1.45;;;;;;;13.77;59.49;98128.59;4153930;28;20208;-55
2022/05/30 07:07:12;;;;;;;1.40;1.30;;;;;;;13.38;58.86;98124.81;4156888;28;20236;-57
2022/05/30 07:09:13;;;;;;;1.60;1.50;;;;;;;13.33;59.61;98130.34;4158533;28;20705;-56
2022/05/30 07:11:16;;;;;;;1.08;0.98;;;;;;;13.48;59.82;98130.31;4156637;28;20230;-58
2022/05/30 07:13:18;;;;;;;1.45;1.35;;;;;;;13.68;59.35;98130.28;4159011;28;20208;-58
2022/05/30 07:15:20;;;;;;;1.20;1.10;;;;;;;13.86;59.84;98135.19;4160309;28;20217;-58
2022/05/30 07:17:26;;;;;;;1.15;1.15;;;;;;;13.97;58.61;98131.25;4157259;28;20306;-57
2022/05/30 07:19:27;;;;;;;2.08;1.13;;;;;;;13.78;59.20;98126.66;4152165;28;20239;-58
2022/05/30 07:21:29;;;;;;;1.40;0.98;;;;;;;13.92;59.33;98133.22;4157571;28;20236;-58
2022/05/30 07:23:32;;;;;;;1.02;1.02;;;;;;;14.13;59.18;98135.63;4153410;28;20572;-58
2022/05/30 07:25:35;;;;;;;5.00;1.45;;;;;;;14.08;58.09;98135.63;4153488;28;20220;-59
2022/05/30 07:27:37;;;;;;;1.20;1.10;;;;;;;13.83;57.76;98135.72;4156646;28;20235;-62
2022/05/30 07:29:39;;;;;;;0.80;0.80;;;;;;;14.24;59.18;98139.97;4153512;28;20231;-58
2022/05/30 07:31:40;;;;;;;2.75;1.40;;;;;;;14.10;57.48;98140.88;4154448;28;20286;-58
2022/05/30 07:33:44;;;;;;;1.17;1.08;;;;;;;14.09;57.48;98140.03;4155057;28;20201;-58
2022/05/30 07:35:46;;;;;;;0.80;0.80;;;;;;;13.81;58.02;98139.84;4153149;28;20208;-57
2022/05/30 07:37:48;;;;;;;1.02;1.00;;;;;;;14.28;58.20;98143.81;4158321;28;20288;-58
2022/05/30 07:39:50;;;;;;;1.40;1.10;;;;;;;14.17;57.55;98141.38;4157344;28;20240;-57
2022/05/30 07:41:52;;;;;;;1.20;1.13;;;;;;;14.21;57.09;98137.81;4155443;28;20225;-58
2022/05/30 07:43:53;;;;;;;1.20;1.00;;;;;;;14.54;57.38;98136.25;4155180;28;20749;-58
2022/05/30 07:46:00;;;;;;;1.75;1.08;;;;;;;14.84;57.27;98139.63;4155861;28;20196;-58
2022/05/30 07:48:02;;;;;;;0.57;0.57;;;;;;;15.27;57.13;98133.22;4154771;28;20300;-58
2022/05/30 07:50:05;;;;;;;1.25;1.23;;;;;;;15.22;55.79;98133.25;4154922;28;20291;-60
2022/05/30 07:52:07;;;;;;;0.75;0.75;;;;;;;15.12;54.67;98130.59;4153366;28;20268;-62
2022/05/30 07:54:08;;;;;;;1.30;0.80;;;;;;;15.40;54.72;98129.81;4155425;28;20308;-58
2022/05/30 07:56:14;;;;;;;2.03;1.85;;;;;;;15.63;55.82;98134.53;4180153;22;20254;-53
2022/05/30 07:58:17;;;;;;;0.68;0.68;;;;;;;15.80;54.38;98145.13;4187765;28;20792;-53
2022/05/30 08:00:24;;;;;;;0.70;0.70;;;;;;;15.58;54.77;98134.63;4207713;28;20618;-52
2022/05/30 08:02:26;;;;;;;1.48;1.20;;;;;;;15.34;54.76;98141.16;4183241;28;20226;-52
2022/05/30 08:04:28;;;;;;;0.60;0.60;;;;;;;14.76;54.98;98142.19;4204347;28;20684;-53
2022/05/30 08:06:31;;;;;;;1.08;1.08;;;;;;;14.77;55.33;98141.88;4212189;28;20230;-53
2022/05/30 08:08:36;;;;;;;0.75;0.75;;;;;;;14.58;54.80;98143.66;4218968;27;20885;-53
2022/05/30 08:10:38;;;;;;;0.70;0.70;;;;;;;14.27;54.61;98142.19;4211841;28;20683;-52
2022/05/30 08:12:47;;;;;;;0.88;0.88;;;;;;;14.38;54.79;98138.25;4203265;28;20616;-54
2022/05/30 08:14:59;;;;;;;0.63;0.63;;;;;;;15.11;55.05;98136.41;4209518;28;20939;-53
2022/05/30 08:17:01;;;;;;;0.75;0.50;;;;;;;15.67;54.30;98141.13;4205840;28;20234;-54
2022/05/30 08:19:10;;;;;;;0.70;0.70;;;;;;;16.12;53.05;98137.03;4222004;28;20205;-53
2022/05/30 08:21:35;;;;;;;0.70;0.70;;;;;;;16.59;51.82;98140.59;4211608;28;20195;-54
2022/05/30 08:23:37;;;;;;;1.98;0.90;;;;;;;16.58;52.58;98136.19;4202484;28;20207;-53
2022/05/30 08:25:47;;;;;;;0.50;0.50;;;;;;;16.70;52.32;98131.00;4206227;28;20281;-53
2022/05/30 08:27:49;;;;;;;0.85;0.80;;;;;;;16.96;52.34;98137.78;4208435;28;20288;-54
2022/05/30 08:29:54;;;;;;;0.50;0.50;;;;;;;17.30;51.50;98135.56;4221904;28;20209;-53
2022/05/30 08:31:56;;;;;;;0.68;0.68;;;;;;;17.57;50.92;98132.91;4194841;28;20270;-53
2022/05/30 08:33:58;;;;;;;0.80;0.80;;;;;;;17.40;50.34;98132.69;4221079;28;20706;-54
2022/05/30 08:36:05;;;;;;;0.60;0.40;;;;;;;16.80;49.85;98139.16;4211650;28;20207;-53
2022/05/30 08:38:07;;;;;;;3.53;0.50;;;;;;;16.45;51.69;98147.13;4203512;28;20211;-53
2022/05/30 08:42:44;;;;;;;0.85;0.73;;;;;;;16.08;52.59;98142.31;4206888;28;20248;-53
2022/05/30 08:44:46;;;;;;;0.50;0.50;;;;;;;15.99;52.52;98144.09;4222786;27;20213;-54
2022/05/30 08:46:56;;;;;;;0.45;0.45;;;;;;;16.08;52.89;98153.34;4205413;28;20218;-53
2022/05/30 08:49:11;;;;;;;0.70;0.70;;;;;;;16.13;52.88;98145.03;4196934;28;20198;-54
2022/05/30 08:51:45;;;;;;;0.90;0.75;;;;;;;16.12;52.36;98143.38;4222243;27;20636;-53
2022/05/30 08:54:00;;;;;;;0.43;0.43;;;;;;;16.14;52.04;98141.16;4216442;28;20754;-53
2022/05/30 08:56:17;;;;;;;0.50;0.50;;;;;;;15.88;52.54;98148.06;4204577;28;20261;-53
2022/05/30 08:58:53;;;;;;;1.45;0.55;;;;;;;15.99;53.58;98144.09;4205569;28;20291;-53
2022/05/30 09:01:10;;;;;;;0.50;0.50;;;;;;;16.08;51.46;98142.31;4204538;28;20277;-54
2022/05/30 09:03:33;;;;;;;0.85;0.60;;;;;;;16.05;52.19;98147.59;4202368;28;21406;-54
2022/05/30 09:06:22;;;;;;;0.50;0.50;;;;;;;15.87;52.19;98149.19;4220293;28;20206;-53
2022/05/30 09:08:29;;;;;;;0.47;0.47;;;;;;;15.78;52.59;98152.88;4177603;28;20294;-52
2022/05/30 09:10:59;;;;;;;0.50;0.50;;;;;;;15.71;52.99;98152.41;4202359;28;20818;-52
2022/05/30 09:13:11;;;;;;;0.50;0.50;;;;;;;15.58;52.77;98153.94;4172627;28;20235;-53
2022/05/30 09:15:17;;;;;;;0.50;0.50;;;;;;;15.64;52.43;98138.94;4208505;28;20260;-53
2022/05/30 09:17:24;;;;;;;0.30;0.30;;;;;;;15.62;52.16;98143.94;4191265;28;20302;-54
2022/05/30 09:19:27;;;;;;;0.98;0.98;;;;;;;15.42;52.92;98146.88;4202393;28;20213;-53
2022/05/30 09:21:30;;;;;;;0.55;0.55;;;;;;;15.53;52.75;98148.44;4220092;28;20255;-54
2022/05/30 09:23:32;;;;;;;0.50;0.50;;;;;;;15.61;53.01;98153.34;4186903;28;20219;-53
2022/05/30 09:26:00;;;;;;;0.68;0.68;;;;;;;15.48;52.35;98148.50;4209440;28;20210;-53
2022/05/30 09:28:08;;;;;;;1.38;0.60;;;;;;;15.40;53.00;98151.88;4204790;28;20241;-53
2022/05/30 09:30:14;;;;;;;0.75;0.70;;;;;;;15.47;53.14;98152.38;4203621;28;20344;-53
2022/05/30 09:32:34;;;;;;;0.90;0.60;;;;;;;15.42;53.01;98144.13;4189519;28;20223;-53
2022/05/30 09:34:54;;;;;;;0.50;0.50;;;;;;;15.46;52.77;98145.22;4218606;28;20276;-52
2022/05/30 09:36:59;;;;;;;0.35;0.35;;;;;;;15.40;52.86;98148.28;4201933;28;20210;-53
2022/05/30 09:39:07;;;;;;;0.45;0.45;;;;;;;15.50;52.91;98142.69;4199256;28;20253;-53
2022/05/30 09:41:18;;;;;;;0.63;0.50;;;;;;;15.48;52.48;98142.97;4200616;28;20202;-53
2022/05/30 09:43:30;;;;;;;0.47;0.47;;;;;;;15.53;52.35;98145.69;4192882;28;20840;-53
2022/05/30 09:45:34;;;;;;;0.63;0.50;;;;;;;15.80;51.65;98145.97;4203056;22;20270;-52
2022/05/30 09:47:58;;;;;;;0.65;0.60;;;;;;;16.68;52.79;98136.03;4171296;28;20740;-52
2022/05/30 09:50:14;;;;;;;0.60;0.60;;;;;;;17.71;50.95;98140.13;4169103;28;20575;-53
2022/05/30 09:52:35;;;;;;;0.50;0.50;;;;;;;18.36;49.51;98129.72;4176216;28;20230;-52
2022/05/30 09:54:38;;;;;;;0.43;0.43;;;;;;;18.07;45.20;98126.44;4197306;28;20289;-53
2022/05/30 09:56:42;;;;;;;0.40;0.40;;;;;;;17.81;45.76;98134.41;4183640;28;20199;-53
2022/05/30 09:59:00;;;;;;;0.63;0.55;;;;;;;18.14;47.12;98137.91;4186119;28;20203;-53
2022/05/30 10:01:02;;;;;;;0.40;0.40;;;;;;;18.31;47.13;98140.94;4189285;28;20210;-53
2022/05/30 10:03:25;;;;;;;0.47;0.47;;;;;;;18.69;47.56;98133.97;4187177;28;20227;-53
2022/05/30 10:05:31;;;;;;;0.60;0.60;;;;;;;18.80;46.07;98135.41;4178582;28;20294;-52
2022/05/30 10:07:34;;;;;;;0.35;0.35;;;;;;;18.54;46.85;98134.31;4171258;28;20238;-52
2022/05/30 10:09:43;;;;;;;0.47;0.47;;;;;;;17.46;47.85;98131.47;4186462;28;20201;-52